BAW5KR LGTS-LGAV
Flight info
| Callsign | BAW5KR |
|---|---|
| Flight time | N/A |
| Altitude | 31000 |
| Route | LEKPO1B LEKPO UL617 SKP UM749 ROPOX ROPOX1W |
| Aircraft | B763/H-SDE3FGHIM3RWXY/LB1 |
Departure
| Time | 2026-05-07 20:29 |
|---|---|
| Airport | Thessaloniki Macedonia International Airport (LGTS) |
Arrival
| Time | N/A |
|---|---|
| Airport | Athens Eleftherios Venizelos International Airport (LGAV) |
| Time | Latitude | Longitude | Altitude | Speed | Heading |
|---|---|---|---|---|---|
| 2026-05-07 20:00 | 40.52178 | 22.97726 | 33 ft | 0 kts | 45° |
| 2026-05-07 20:18 | 40.52176 | 22.97724 | 33 ft | 1 kts | 45° |
| 2026-05-07 20:19 | 40.52163 | 22.97707 | 32 ft | 3 kts | 46° |
| 2026-05-07 20:19 | 40.52151 | 22.97694 | 32 ft | 3 kts | 24° |
| 2026-05-07 20:19 | 40.52136 | 22.97687 | 32 ft | 2 kts | 9° |
| 2026-05-07 20:19 | 40.52122 | 22.97686 | 30 ft | 1 kts | 344° |
| 2026-05-07 20:20 | 40.52119 | 22.97687 | 30 ft | 0 kts | 322° |
| 2026-05-07 20:20 | 40.52119 | 22.97688 | 30 ft | 0 kts | 317° |
| 2026-05-07 20:22 | 40.52120 | 22.97685 | 33 ft | 1 kts | 317° |
| 2026-05-07 20:23 | 40.52128 | 22.97676 | 33 ft | 2 kts | 314° |
| 2026-05-07 20:23 | 40.52138 | 22.97657 | 33 ft | 3 kts | 297° |
| 2026-05-07 20:23 | 40.52148 | 22.97622 | 33 ft | 6 kts | 289° |
| 2026-05-07 20:23 | 40.52172 | 22.97571 | 33 ft | 8 kts | 311° |
| 2026-05-07 20:24 | 40.52218 | 22.97510 | 33 ft | 11 kts | 314° |
| 2026-05-07 20:24 | 40.52279 | 22.97428 | 33 ft | 14 kts | 313° |
| 2026-05-07 20:24 | 40.52348 | 22.97329 | 33 ft | 15 kts | 312° |
| 2026-05-07 20:24 | 40.52379 | 22.97274 | 33 ft | 2 kts | 288° |
| 2026-05-07 20:25 | 40.52382 | 22.97252 | 33 ft | 3 kts | 275° |
| 2026-05-07 20:25 | 40.52380 | 22.97214 | 33 ft | 5 kts | 265° |
| 2026-05-07 20:25 | 40.52393 | 22.97166 | 33 ft | 7 kts | 310° |
| 2026-05-07 20:25 | 40.52443 | 22.97132 | 33 ft | 10 kts | 342° |
| 2026-05-07 20:26 | 40.52528 | 22.97102 | 33 ft | 15 kts | 346° |
| 2026-05-07 20:26 | 40.52640 | 22.97067 | 33 ft | 18 kts | 347° |
| 2026-05-07 20:26 | 40.52777 | 22.97025 | 33 ft | 21 kts | 346° |
| 2026-05-07 20:26 | 40.52925 | 22.96976 | 33 ft | 22 kts | 346° |
| 2026-05-07 20:27 | 40.53028 | 22.96944 | 33 ft | 13 kts | 346° |
| 2026-05-07 20:27 | 40.53060 | 22.96923 | 33 ft | 4 kts | 315° |
| 2026-05-07 20:27 | 40.53068 | 22.96891 | 33 ft | 4 kts | 271° |
| 2026-05-07 20:27 | 40.53060 | 22.96855 | 33 ft | 3 kts | 240° |
| 2026-05-07 20:28 | 40.53045 | 22.96831 | 33 ft | 5 kts | 229° |
| 2026-05-07 20:28 | 40.53014 | 22.96788 | 33 ft | 6 kts | 216° |
| 2026-05-07 20:28 | 40.52978 | 22.96781 | 33 ft | 6 kts | 174° |
| 2026-05-07 20:28 | 40.52951 | 22.96787 | 34 ft | 0 kts | 166° |
| 2026-05-07 20:29 | 40.52947 | 22.96788 | 34 ft | 7 kts | 166° |
| 2026-05-07 20:29 | 40.52629 | 22.96888 | 34 ft | 91 kts | 166° |
| 2026-05-07 20:29 | 40.51726 | 22.97172 | 38 ft | 174 kts | 165° |
| 2026-05-07 20:29 | 40.50415 | 22.97598 | 731 ft | 205 kts | 165° |
| 2026-05-07 20:30 | 40.49020 | 22.98060 | 1856 ft | 217 kts | 167° |
| 2026-05-07 20:30 | 40.47472 | 22.98416 | 2856 ft | 234 kts | 172° |
| 2026-05-07 20:30 | 40.45816 | 22.98755 | 3939 ft | 246 kts | 169° |
| 2026-05-07 20:30 | 40.44129 | 22.99266 | 5252 ft | 251 kts | 167° |
| 2026-05-07 20:31 | 40.42411 | 22.99827 | 6578 ft | 257 kts | 168° |
| 2026-05-07 20:31 | 40.40649 | 23.00357 | 7798 ft | 263 kts | 171° |
| 2026-05-07 20:31 | 40.38837 | 23.00868 | 9028 ft | 269 kts | 171° |
| 2026-05-07 20:31 | 40.36999 | 23.01507 | 10220 ft | 278 kts | 167° |
| 2026-05-07 20:32 | 40.35071 | 23.02281 | 10969 ft | 303 kts | 166° |
| 2026-05-07 20:32 | 40.33020 | 23.03283 | 11704 ft | 326 kts | 159° |
| 2026-05-07 20:32 | 40.30933 | 23.04560 | 12496 ft | 344 kts | 158° |
| 2026-05-07 20:32 | 40.28709 | 23.05912 | 13312 ft | 361 kts | 159° |
| 2026-05-07 20:33 | 40.26373 | 23.07286 | 14096 ft | 376 kts | 159° |
| 2026-05-07 20:33 | 40.23940 | 23.08716 | 14815 ft | 390 kts | 159° |
| 2026-05-07 20:33 | 40.21425 | 23.10208 | 15571 ft | 401 kts | 159° |
| 2026-05-07 20:33 | 40.18866 | 23.11723 | 16535 ft | 407 kts | 159° |
| 2026-05-07 20:34 | 40.16269 | 23.13253 | 17457 ft | 413 kts | 159° |
| 2026-05-07 20:34 | 40.13639 | 23.14827 | 18375 ft | 419 kts | 158° |
| 2026-05-07 20:34 | 40.10999 | 23.16379 | 19125 ft | 423 kts | 161° |
| 2026-05-07 20:34 | 40.08226 | 23.17714 | 19916 ft | 427 kts | 163° |
| 2026-05-07 20:35 | 40.05421 | 23.19080 | 20654 ft | 433 kts | 162° |
| 2026-05-07 20:35 | 40.02582 | 23.20488 | 21420 ft | 439 kts | 162° |
| 2026-05-07 20:35 | 39.99709 | 23.21903 | 22152 ft | 444 kts | 162° |
| 2026-05-07 20:35 | 39.96801 | 23.23330 | 22873 ft | 449 kts | 162° |
| 2026-05-07 20:36 | 39.93858 | 23.24776 | 23575 ft | 455 kts | 163° |
| 2026-05-07 20:36 | 39.90881 | 23.26239 | 24166 ft | 460 kts | 163° |
| 2026-05-07 20:36 | 39.87909 | 23.27698 | 24710 ft | 465 kts | 163° |
| 2026-05-07 20:36 | 39.84859 | 23.29194 | 25264 ft | 471 kts | 163° |
| 2026-05-07 20:37 | 39.81775 | 23.30705 | 25799 ft | 476 kts | 163° |
| 2026-05-07 20:37 | 39.78657 | 23.32231 | 26348 ft | 481 kts | 163° |
| 2026-05-07 20:37 | 39.75505 | 23.33774 | 26891 ft | 487 kts | 163° |
| 2026-05-07 20:37 | 39.72318 | 23.35330 | 27407 ft | 492 kts | 163° |
| 2026-05-07 20:38 | 39.69095 | 23.36899 | 27910 ft | 498 kts | 163° |
| 2026-05-07 20:38 | 39.65835 | 23.38487 | 28403 ft | 503 kts | 164° |
| 2026-05-07 20:38 | 39.62585 | 23.40069 | 28894 ft | 508 kts | 164° |
| 2026-05-07 20:38 | 39.59254 | 23.41687 | 29382 ft | 514 kts | 164° |
| 2026-05-07 20:39 | 39.55902 | 23.43316 | 30105 ft | 511 kts | 164° |
| 2026-05-07 20:39 | 39.52592 | 23.44927 | 30852 ft | 511 kts | 165° |
| 2026-05-07 20:39 | 39.49224 | 23.46545 | 30973 ft | 523 kts | 165° |
| 2026-05-07 20:39 | 39.45779 | 23.48217 | 31054 ft | 535 kts | 165° |
| 2026-05-07 20:40 | 39.42215 | 23.49742 | 31094 ft | 544 kts | 169° |
| 2026-05-07 20:40 | 39.34725 | 23.51672 | 31127 ft | 559 kts | 176° |
| 2026-05-07 20:41 | 39.27062 | 23.53322 | 31111 ft | 563 kts | 176° |
| 2026-05-07 20:41 | 39.19331 | 23.54962 | 31112 ft | 563 kts | 176° |
| 2026-05-07 20:42 | 39.11597 | 23.56603 | 31113 ft | 563 kts | 176° |
| 2026-05-07 20:42 | 39.03859 | 23.58241 | 31113 ft | 564 kts | 176° |
| 2026-05-07 20:43 | 38.96117 | 23.59877 | 31114 ft | 564 kts | 176° |
| 2026-05-07 20:43 | 38.88548 | 23.61479 | 31088 ft | 536 kts | 176° |
| 2026-05-07 20:43 | 38.84936 | 23.62235 | 30898 ft | 518 kts | 177° |
| 2026-05-07 20:44 | 38.81409 | 23.62970 | 30322 ft | 510 kts | 176° |
| 2026-05-07 20:44 | 38.77927 | 23.63703 | 29646 ft | 503 kts | 176° |
| 2026-05-07 20:44 | 38.74500 | 23.64426 | 28976 ft | 496 kts | 176° |
| 2026-05-07 20:44 | 38.71115 | 23.65137 | 28338 ft | 489 kts | 176° |
| 2026-05-07 20:45 | 38.67782 | 23.65830 | 27691 ft | 482 kts | 176° |
| 2026-05-07 20:45 | 38.64533 | 23.66509 | 27063 ft | 477 kts | 175° |
| 2026-05-07 20:45 | 38.61279 | 23.67195 | 26413 ft | 470 kts | 175° |
| 2026-05-07 20:45 | 38.58063 | 23.67864 | 25691 ft | 466 kts | 175° |
| 2026-05-07 20:46 | 38.54882 | 23.68527 | 24992 ft | 461 kts | 175° |
| 2026-05-07 20:46 | 38.51730 | 23.69186 | 24294 ft | 456 kts | 174° |
| 2026-05-07 20:46 | 38.48614 | 23.69834 | 23602 ft | 451 kts | 174° |
| 2026-05-07 20:46 | 38.45534 | 23.70477 | 22816 ft | 446 kts | 174° |
| 2026-05-07 20:47 | 38.42491 | 23.71110 | 22028 ft | 440 kts | 174° |
| 2026-05-07 20:47 | 38.39486 | 23.71734 | 21261 ft | 435 kts | 174° |
| 2026-05-07 20:47 | 38.36561 | 23.72341 | 20518 ft | 429 kts | 174° |
| 2026-05-07 20:47 | 38.33634 | 23.72948 | 19800 ft | 423 kts | 174° |
| 2026-05-07 20:48 | 38.30748 | 23.73546 | 19092 ft | 417 kts | 173° |
| 2026-05-07 20:48 | 38.27900 | 23.74135 | 18387 ft | 412 kts | 173° |
| 2026-05-07 20:48 | 38.25093 | 23.74717 | 17612 ft | 406 kts | 174° |
| 2026-05-07 20:48 | 38.22325 | 23.75290 | 16825 ft | 400 kts | 174° |
| 2026-05-07 20:49 | 38.19616 | 23.76017 | 16058 ft | 398 kts | 163° |
| 2026-05-07 20:49 | 38.17094 | 23.77446 | 15324 ft | 395 kts | 156° |
| 2026-05-07 20:49 | 38.14702 | 23.79027 | 14601 ft | 390 kts | 154° |
| 2026-05-07 20:49 | 38.12335 | 23.80674 | 13908 ft | 386 kts | 154° |
| 2026-05-07 20:50 | 38.10058 | 23.82445 | 13143 ft | 383 kts | 148° |
| 2026-05-07 20:50 | 38.07899 | 23.84389 | 12402 ft | 378 kts | 147° |
| 2026-05-07 20:50 | 38.05763 | 23.86289 | 11659 ft | 373 kts | 147° |
| 2026-05-07 20:50 | 38.03641 | 23.88142 | 10927 ft | 368 kts | 147° |
| 2026-05-07 20:51 | 38.01548 | 23.89972 | 10211 ft | 363 kts | 147° |
| 2026-05-07 20:51 | 37.99486 | 23.91783 | 9447 ft | 358 kts | 147° |
| 2026-05-07 20:51 | 37.97451 | 23.93569 | 8741 ft | 352 kts | 147° |
| 2026-05-07 20:51 | 37.95508 | 23.95272 | 8418 ft | 335 kts | 147° |
| 2026-05-07 20:52 | 37.93647 | 23.96902 | 8261 ft | 315 kts | 147° |
| 2026-05-07 20:52 | 37.91906 | 23.98423 | 8172 ft | 294 kts | 147° |
| 2026-05-07 20:52 | 37.90280 | 23.99842 | 8121 ft | 274 kts | 147° |
| 2026-05-07 20:52 | 37.88742 | 24.01185 | 7917 ft | 268 kts | 147° |
| 2026-05-07 20:53 | 37.87191 | 24.02535 | 7419 ft | 272 kts | 147° |
| 2026-05-07 20:53 | 37.85646 | 24.03886 | 7100 ft | 266 kts | 146° |
| 2026-05-07 20:53 | 37.84134 | 24.05209 | 6731 ft | 263 kts | 147° |
| 2026-05-07 20:53 | 37.82635 | 24.06515 | 6342 ft | 260 kts | 146° |
| 2026-05-07 20:54 | 37.81172 | 24.07789 | 5950 ft | 257 kts | 146° |
| 2026-05-07 20:54 | 37.79704 | 24.09068 | 5560 ft | 255 kts | 146° |
| 2026-05-07 20:54 | 37.78266 | 24.10320 | 5333 ft | 246 kts | 146° |
| 2026-05-07 20:54 | 37.76893 | 24.11516 | 5227 ft | 236 kts | 147° |
| 2026-05-07 20:55 | 37.75532 | 24.12696 | 5202 ft | 241 kts | 147° |
| 2026-05-07 20:55 | 37.74136 | 24.13909 | 5187 ft | 245 kts | 147° |
| 2026-05-07 20:55 | 37.72733 | 24.15129 | 5183 ft | 245 kts | 147° |
| 2026-05-07 20:55 | 37.71330 | 24.16348 | 5163 ft | 245 kts | 147° |
| 2026-05-07 20:56 | 37.69945 | 24.17551 | 5164 ft | 245 kts | 147° |
| 2026-05-07 20:56 | 37.68536 | 24.18773 | 5163 ft | 246 kts | 147° |
| 2026-05-07 20:56 | 37.67127 | 24.19995 | 5159 ft | 246 kts | 147° |
| 2026-05-07 20:56 | 37.65721 | 24.21214 | 5154 ft | 245 kts | 147° |
| 2026-05-07 20:57 | 37.64312 | 24.22420 | 5151 ft | 244 kts | 152° |
| 2026-05-07 20:57 | 37.62706 | 24.22971 | 5180 ft | 241 kts | 184° |
| 2026-05-07 20:57 | 37.61119 | 24.22344 | 5201 ft | 243 kts | 215° |
| 2026-05-07 20:57 | 37.60031 | 24.20737 | 5210 ft | 245 kts | 246° |
| 2026-05-07 20:58 | 37.59771 | 24.18622 | 5217 ft | 250 kts | 277° |
| 2026-05-07 20:58 | 37.60414 | 24.16621 | 5212 ft | 255 kts | 307° |
| 2026-05-07 20:58 | 37.61502 | 24.14848 | 5158 ft | 256 kts | 294° |
| 2026-05-07 20:58 | 37.62325 | 24.12892 | 5188 ft | 254 kts | 310° |
| 2026-05-07 20:59 | 37.63765 | 24.11605 | 5211 ft | 260 kts | 341° |
| 2026-05-07 20:59 | 37.65556 | 24.11317 | 5235 ft | 260 kts | 1° |
| 2026-05-07 20:59 | 37.67352 | 24.11395 | 5220 ft | 259 kts | 2° |
| 2026-05-07 20:59 | 37.69164 | 24.11440 | 5185 ft | 260 kts | 360° |
| 2026-05-07 21:00 | 37.70963 | 24.11365 | 5158 ft | 258 kts | 356° |
| 2026-05-07 21:00 | 37.72738 | 24.11177 | 5157 ft | 260 kts | 354° |
| 2026-05-07 21:00 | 37.74532 | 24.10924 | 5150 ft | 258 kts | 353° |
| 2026-05-07 21:00 | 37.76315 | 24.10631 | 5150 ft | 259 kts | 351° |
| 2026-05-07 21:01 | 37.78084 | 24.10172 | 5150 ft | 260 kts | 345° |
| 2026-05-07 21:01 | 37.79828 | 24.09601 | 5150 ft | 258 kts | 345° |
| 2026-05-07 21:01 | 37.81574 | 24.09045 | 5147 ft | 259 kts | 349° |
| 2026-05-07 21:01 | 37.83365 | 24.09106 | 5167 ft | 259 kts | 9° |
| 2026-05-07 21:02 | 37.85124 | 24.09592 | 5156 ft | 260 kts | 24° |
| 2026-05-07 21:02 | 37.86596 | 24.10814 | 5181 ft | 258 kts | 41° |